Time;durP1;ratioP1;P1;durP2;ratioP2;P2;SDS_P1;SDS_P2;PMS_P1;PMS_P2;Temp;Humidity;BMP_temperature;BMP_pressure;BME280_temperature;BME280_humidity;BME280_pressure;Samples;Min_cycle;Max_cycle;Signal;HPM_P1;HPM_P2
2021/04/19 00:01:48;;;;;;;;;;;;;;;10.07;82.50;100935.55;1762012;80;26439;-76
2021/04/19 00:04:15;;;;;;;;;;;;;;;10.03;82.54;100931.55;1742288;80;26486;-76
2021/04/19 00:06:42;;;;;;;;;;;;;;;10.02;82.58;100931.24;1759499;80;25699;-76
2021/04/19 00:09:09;;;;;;;;;;;;;;;9.99;82.54;100936.09;1751617;80;28438;-76
2021/04/19 00:11:37;;;;;;;;;;;;;;;9.95;82.59;100933.44;1741746;80;25820;-76
2021/04/19 00:14:04;;;;;;;;;;;;;;;9.90;82.61;100926.45;1717379;80;25748;-76
2021/04/19 00:16:32;;;;;;;;;;;;;;;9.88;82.71;100921.78;1736780;80;25850;-76
2021/04/19 00:18:59;;;;;;;;;;;;;;;9.90;82.95;100921.11;1716622;80;25375;-76
2021/04/19 00:21:26;;;;;;;;;;;;;;;9.91;82.93;100919.59;1737417;80;27691;-76
2021/04/19 00:23:53;;;;;;;;;;;;;;;9.95;82.83;100910.69;1755818;80;27082;-76
2021/04/19 00:26:20;;;;;;;;;;;;;;;9.99;82.80;100909.33;1718614;80;25705;-75
2021/04/19 00:28:47;;;;;;;;;;;;;;;9.98;82.67;100903.17;1737060;80;25824;-76
2021/04/19 00:31:14;;;;;;;;;;;;;;;9.94;82.75;100901.02;1735495;80;26134;-76
2021/04/19 00:33:41;;;;;;;;;;;;;;;9.91;82.63;100904.03;1714154;80;27538;-76
2021/04/19 00:36:09;;;;;;;;;;;;;;;9.85;82.72;100901.56;1738112;80;25361;-76
2021/04/19 00:38:37;;;;;;;;;;;;;;;9.80;82.84;100891.88;1711538;80;25726;-76
2021/04/19 00:41:04;;;;;;;;;;;;;;;9.75;82.80;100890.74;1736086;80;25751;-76
2021/04/19 00:43:31;;;;;;;;;;;;;;;9.69;82.92;100882.89;1761966;80;25784;-76
2021/04/19 00:46:02;;;;;;;;;;;;;;;9.65;83.12;100896.28;1736080;80;28449;-76
2021/04/19 00:48:34;;;;;;;;;;;;;;;9.57;83.25;100890.98;1739598;80;26465;-76
2021/04/19 00:51:06;;;;;;;;;;;;;;;9.49;83.46;100889.67;1737995;80;25889;-76
2021/04/19 00:53:33;;;;;;;;;;;;;;;9.44;83.71;100881.82;1712779;80;26911;-76
2021/04/19 00:56:00;;;;;;;;;;;;;;;9.36;84.01;100888.05;1739238;80;25938;-76
2021/04/19 00:58:30;;;;;;;;;;;;;;;9.32;84.08;100882.19;1714852;80;27470;-75
2021/04/19 01:00:57;;;;;;;;;;;;;;;9.28;84.00;100885.41;1676798;83;26119;-76
2021/04/19 01:03:24;;;;;;;;;;;;;;;9.21;84.17;100887.08;1704770;83;25775;-76
2021/04/19 01:05:52;;;;;;;;;;;;;;;9.21;84.24;100881.73;1752403;80;25776;-76
2021/04/19 01:08:19;;;;;;;;;;;;;;;9.17;84.27;100879.89;1743863;80;26388;-76
2021/04/19 01:10:46;;;;;;;;;;;;;;;9.13;84.48;100881.77;1761402;80;27521;-76
2021/04/19 01:13:14;;;;;;;;;;;;;;;9.12;84.72;100878.75;1720227;80;25732;-76
2021/04/19 01:15:41;;;;;;;;;;;;;;;9.11;84.70;100877.09;1711800;80;25935;-76
2021/04/19 01:18:10;;;;;;;;;;;;;;;9.10;84.70;100876.25;1743800;80;25705;-76
2021/04/19 01:20:41;;;;;;;;;;;;;;;9.10;84.68;100875.41;1741087;80;26476;-76
2021/04/19 01:23:08;;;;;;;;;;;;;;;9.10;84.71;100884.27;1764387;80;28395;-76
2021/04/19 01:25:36;;;;;;;;;;;;;;;9.13;84.75;100885.77;1742173;80;26487;-76
2021/04/19 01:28:05;;;;;;;;;;;;;;;9.19;84.75;100883.75;1740884;80;26104;-75
2021/04/19 01:30:36;;;;;;;;;;;;;;;9.23;84.64;100883.24;1740801;80;25793;-76
2021/04/19 01:33:04;;;;;;;;;;;;;;;9.24;84.56;100889.39;1742476;80;25794;-76
2021/04/19 01:35:33;;;;;;;;;;;;;;;9.24;84.52;100886.23;1741630;80;27303;-76
2021/04/19 01:38:00;;;;;;;;;;;;;;;9.25;84.46;100880.39;1719370;80;25856;-76
2021/04/19 01:40:27;;;;;;;;;;;;;;;9.27;84.49;100884.56;1743299;80;25881;-76
2021/04/19 01:42:55;;;;;;;;;;;;;;;9.27;84.43;100887.23;1722223;80;25808;-76
2021/04/19 01:45:22;;;;;;;;;;;;;;;9.32;84.39;100880.04;1741003;80;25720;-76
2021/04/19 01:47:50;;;;;;;;;;;;;;;9.33;84.32;100879.02;1744343;80;28626;-76
2021/04/19 01:50:20;;;;;;;;;;;;;;;9.37;84.14;100880.87;1743357;80;25715;-75
2021/04/19 01:52:49;;;;;;;;;;;;;;;9.34;84.00;100878.84;1764148;80;25826;-76
2021/04/19 01:55:20;;;;;;;;;;;;;;;9.38;83.80;100883.86;1725527;80;25842;-76
2021/04/19 01:57:59;;;;;;;;;;;;;;;9.38;83.57;100881.18;1716897;80;25871;-76
2021/04/19 02:00:28;;;;;;;;;;;;;;;9.39;83.55;100882.86;1762825;80;27511;-76
2021/04/19 02:03:15;;;;;;;;;;;;;;;9.33;83.28;100874.52;1720422;80;25924;-76
2021/04/19 02:06:04;;;;;;;;;;;;;;;9.24;83.15;100875.53;1719333;80;25632;-76
2021/04/19 02:08:35;;;;;;;;;;;;;;;9.17;83.38;100877.74;1761959;80;26571;-76
2021/04/19 02:11:27;;;;;;;;;;;;;;;9.15;83.67;100874.41;1741439;80;26383;-76
2021/04/19 02:14:03;;;;;;;;;;;;;;;9.15;83.94;100878.42;1702177;82;28399;-76
2021/04/19 02:16:49;;;;;;;;;;;;;;;9.15;83.86;100875.75;1765979;80;25726;-76
2021/04/19 02:19:39;;;;;;;;;;;;;;;9.15;83.56;100880.56;1741259;80;25951;-76
2021/04/19 02:22:16;;;;;;;;;;;;;;;9.18;83.75;100877.56;1764338;80;25874;-75
2021/04/19 02:24:49;;;;;;;;;;;;;;;9.21;83.86;100875.06;1743771;80;25389;-75
2021/04/19 02:27:22;;;;;;;;;;;;;;;9.20;83.77;100868.87;1713234;81;27317;-76
2021/04/19 02:29:53;;;;;;;;;;;;;;;9.20;83.62;100877.38;1744426;80;26470;-76
2021/04/19 02:32:27;;;;;;;;;;;;;;;9.19;83.47;100873.06;1742936;80;25822;-76
2021/04/19 02:34:57;;;;;;;;;;;;;;;9.18;83.50;100879.39;1765406;80;26327;-76
2021/04/19 02:37:24;;;;;;;;;;;;;;;9.15;83.28;100879.23;1763523;80;26165;-76
2021/04/19 02:39:52;;;;;;;;;;;;;;;9.11;83.03;100875.76;1743848;80;26570;-76
2021/04/19 02:42:19;;;;;;;;;;;;;;;9.04;82.90;100873.42;1764431;80;25749;-76
2021/04/19 02:44:48;;;;;;;;;;;;;;;9.01;82.79;100875.92;1718225;80;25750;-76
2021/04/19 02:47:33;;;;;;;;;;;;;;;8.95;82.81;100869.94;1774155;80;26347;-76
2021/04/19 02:50:16;;;;;;;;;;;;;;;8.90;82.87;100880.28;1715079;80;25818;-76
2021/04/19 02:52:45;;;;;;;;;;;;;;;8.84;82.54;100875.62;1744128;80;27536;-76
2021/04/19 02:55:13;;;;;;;;;;;;;;;8.80;82.47;100876.12;1764297;80;26599;-76
2021/04/19 02:57:52;;;;;;;;;;;;;;;8.75;82.59;100883.80;1745008;80;26429;-76
2021/04/19 03:00:22;;;;;;;;;;;;;;;8.69;82.77;100884.47;1743698;80;44464;-76
2021/04/19 03:02:51;;;;;;;;;;;;;;;8.65;82.96;100885.81;1761074;80;25714;-76
2021/04/19 03:05:19;;;;;;;;;;;;;;;8.61;82.95;100885.81;1760896;80;27532;-75
2021/04/19 03:07:52;;;;;;;;;;;;;;;8.54;82.71;100879.81;1722935;80;25947;-76
2021/04/19 03:10:20;;;;;;;;;;;;;;;8.53;82.85;100886.66;1791990;78;25798;-76
2021/04/19 03:12:49;;;;;;;;;;;;;;;8.52;82.52;100884.98;1759999;80;25872;-76
2021/04/19 03:15:21;;;;;;;;;;;;;;;8.50;82.61;100878.48;1753296;78;25810;-76
2021/04/19 03:17:53;;;;;;;;;;;;;;;8.49;82.36;100882.14;1771224;79;27516;-76
2021/04/19 03:20:29;;;;;;;;;;;;;;;8.46;82.21;100886.48;1767245;78;26112;-76
2021/04/19 03:22:58;;;;;;;;;;;;;;;8.46;82.28;100882.48;1773605;78;25826;-76
2021/04/19 03:25:28;;;;;;;;;;;;;;;8.47;82.19;100881.96;1763329;78;26416;-75
2021/04/19 03:27:56;;;;;;;;;;;;;;;8.45;81.98;100880.80;1685732;81;25744;-76
2021/04/19 03:30:24;;;;;;;;;;;;;;;8.43;81.86;100885.47;1723914;82;28558;-76
2021/04/19 03:32:55;;;;;;;;;;;;;;;8.41;81.75;100883.97;1735907;82;25773;-76
2021/04/19 03:35:26;;;;;;;;;;;;;;;8.40;81.69;100880.98;1724485;81;26395;-76
2021/04/19 03:37:55;;;;;;;;;;;;;;;8.38;81.79;100880.31;1738933;81;25721;-76
2021/04/19 03:40:28;;;;;;;;;;;;;;;8.36;81.97;100882.31;1693730;83;25733;-76
2021/04/19 03:42:57;;;;;;;;;;;;;;;8.33;81.96;100878.14;1710273;81;28418;-76
2021/04/19 03:45:26;;;;;;;;;;;;;;;8.33;81.95;100882.14;1732361;81;25783;-76
2021/04/19 03:47:58;;;;;;;;;;;;;;;8.31;81.92;100888.14;1687842;82;25696;-76
2021/04/19 03:50:32;;;;;;;;;;;;;;;8.28;81.96;100884.45;1736230;81;25842;-76
2021/04/19 03:52:59;;;;;;;;;;;;;;;8.26;81.91;100882.95;1716724;81;26400;-76
2021/04/19 03:55:27;;;;;;;;;;;;;;;8.20;81.42;100888.42;1687157;82;27079;-76
2021/04/19 03:57:57;;;;;;;;;;;;;;;8.15;81.20;100884.06;1744390;81;25940;-76
2021/04/19 04:00:26;;;;;;;;;;;;;;;8.14;81.32;100885.58;1749087;81;25782;-76
2021/04/19 04:02:55;;;;;;;;;;;;;;;8.16;81.43;100888.91;1744983;81;26424;-75
2021/04/19 04:05:27;;;;;;;;;;;;;;;8.15;81.34;100887.23;1744907;81;26333;-76
2021/04/19 04:07:59;;;;;;;;;;;;;;;8.11;81.29;100885.40;1718755;81;28210;-75
2021/04/19 04:10:28;;;;;;;;;;;;;;;8.13;81.35;100886.06;1736258;81;26094;-76
2021/04/19 04:12:55;;;;;;;;;;;;;;;8.11;81.48;100885.40;1721109;81;25838;-76
2021/04/19 04:15:23;;;;;;;;;;;;;;;8.10;81.32;100888.23;1743152;81;25878;-76
2021/04/19 04:17:51;;;;;;;;;;;;;;;8.12;81.34;100889.75;1733644;81;25891;-76
2021/04/19 04:20:20;;;;;;;;;;;;;;;8.13;81.34;100883.89;1728764;81;27699;-76
2021/04/19 04:22:49;;;;;;;;;;;;;;;8.14;81.32;100892.25;1709384;82;25805;-76
2021/04/19 04:25:17;;;;;;;;;;;;;;;8.13;81.38;100892.73;1675666;82;25800;-76
2021/04/19 04:27:45;;;;;;;;;;;;;;;8.15;81.46;100891.23;1699081;81;25810;-76
2021/04/19 04:30:14;;;;;;;;;;;;;;;8.17;81.54;100890.08;1691672;81;25845;-76
2021/04/19 04:32:46;;;;;;;;;;;;;;;8.21;81.68;100887.94;1717892;82;28240;-76
2021/04/19 04:35:17;;;;;;;;;;;;;;;8.25;81.82;100887.47;1735013;81;25862;-76
2021/04/19 04:37:46;;;;;;;;;;;;;;;8.27;81.87;100888.64;1723050;81;25849;-76
2021/04/19 04:40:15;;;;;;;;;;;;;;;8.31;82.18;100896.64;1713343;82;26434;-76
2021/04/19 04:42:46;;;;;;;;;;;;;;;8.36;82.21;100903.14;1715205;82;25356;-76
2021/04/19 04:45:13;;;;;;;;;;;;;;;8.38;82.26;100900.33;1714822;82;28429;-77
2021/04/19 04:47:43;;;;;;;;;;;;;;;8.42;82.47;100902.51;1737910;81;26326;-76
2021/04/19 04:50:22;;;;;;;;;;;;;;;8.48;82.56;100905.00;1740262;81;25831;-76
2021/04/19 04:53:02;;;;;;;;;;;;;;;8.53;82.57;100908.02;1705141;82;25852;-76
2021/04/19 04:55:30;;;;;;;;;;;;;;;8.52;82.55;100907.18;1702962;82;25826;-75
2021/04/19 04:57:59;;;;;;;;;;;;;;;8.51;82.50;100908.69;1688977;81;27554;-76
2021/04/19 05:00:27;;;;;;;;;;;;;;;8.49;82.50;100911.50;1693970;81;25973;-76
2021/04/19 05:02:55;;;;;;;;;;;;;;;8.49;82.54;100914.17;1721737;81;25903;-76
2021/04/19 05:05:22;;;;;;;;;;;;;;;8.52;82.69;100914.34;1706619;81;26555;-76
2021/04/19 05:07:50;;;;;;;;;;;;;;;8.53;82.79;100918.70;1741778;81;26465;-76
2021/04/19 05:10:18;;;;;;;;;;;;;;;8.55;82.89;100918.84;1714896;81;27547;-76
2021/04/19 05:12:45;;;;;;;;;;;;;;;8.59;83.03;100911.84;1718907;81;25769;-76
2021/04/19 05:15:13;;;;;;;;;;;;;;;8.63;83.22;100913.19;1702650;81;25218;-76
2021/04/19 05:17:41;;;;;;;;;;;;;;;8.64;83.35;100913.53;1683486;83;25899;-76
2021/04/19 05:20:09;;;;;;;;;;;;;;;8.70;83.56;100912.37;1708630;81;25958;-77
2021/04/19 05:22:36;;;;;;;;;;;;;;;8.75;83.62;100905.16;1675651;81;27547;-75
2021/04/19 05:25:05;;;;;;;;;;;;;;;8.78;83.73;100903.02;1716474;81;26242;-76
2021/04/19 05:27:32;;;;;;;;;;;;;;;8.80;83.56;100898.33;1740831;81;25869;-76
2021/04/19 05:30:00;;;;;;;;;;;;;;;8.81;83.53;100903.18;1715976;81;26430;-76
2021/04/19 05:32:30;;;;;;;;;;;;;;;8.87;83.62;100907.35;1692845;81;25760;-75
2021/04/19 05:34:57;;;;;;;;;;;;;;;8.95;83.71;100904.66;1696706;81;27594;-75
2021/04/19 05:37:24;;;;;;;;;;;;;;;8.99;83.79;100904.66;1692731;81;25810;-76
2021/04/19 05:39:51;;;;;;;;;;;;;;;9.06;83.98;100907.00;1693315;81;26176;-76
2021/04/19 05:42:19;;;;;;;;;;;;;;;9.09;83.96;100915.98;1715718;81;26572;-75
2021/04/19 05:44:47;;;;;;;;;;;;;;;9.10;84.10;100919.50;1697446;81;26144;-76
2021/04/19 05:47:14;;;;;;;;;;;;;;;9.10;84.05;100914.16;1739463;81;28246;-76
2021/04/19 05:49:41;;;;;;;;;;;;;;;9.16;84.12;100902.29;1680136;83;25798;-76
2021/04/19 05:52:10;;;;;;;;;;;;;;;9.22;83.94;100908.28;1691717;83;25806;-76
2021/04/19 05:54:39;;;;;;;;;;;;;;;9.29;84.15;100911.11;1676505;84;26705;-76
2021/04/19 05:57:37;;;;;;;;;;;;;;;9.34;84.44;100912.78;1679649;84;26740;-76
2021/04/19 06:00:08;;;;;;;;;;;;;;;9.41;84.77;100914.27;1692253;83;26969;-76
2021/04/19 06:02:51;;;;;;;;;;;;;;;9.53;84.66;100921.75;1670349;84;26023;-76
2021/04/19 06:05:24;;;;;;;;;;;;;;;9.69;85.34;100925.69;1708638;81;26006;-76
2021/04/19 06:08:04;;;;;;;;;;;;;;;9.80;85.04;100921.80;1719406;82;25899;-76
2021/04/19 06:10:49;;;;;;;;;;;;;;;9.82;84.70;100923.80;1692490;82;26058;-75
2021/04/19 06:13:36;;;;;;;;;;;;;;;9.81;84.58;100925.66;1698864;82;29263;-76
2021/04/19 06:16:04;;;;;;;;;;;;;;;9.86;84.64;100918.42;1692351;81;25366;-76
2021/04/19 06:18:35;;;;;;;;;;;;;;;9.90;84.86;100921.91;1717475;81;25854;-75
2021/04/19 06:21:02;;;;;;;;;;;;;;;9.94;85.06;100923.23;1681372;82;25843;-76
2021/04/19 06:23:29;;;;;;;;;;;;;;;9.98;84.87;100919.72;1700267;82;25873;-76
2021/04/19 06:25:59;;;;;;;;;;;;;;;10.01;84.85;100916.67;1699453;82;27540;-76
2021/04/19 06:28:26;;;;;;;;;;;;;;;10.02;85.00;100923.22;1721680;82;25389;-76
2021/04/19 06:30:54;;;;;;;;;;;;;;;10.06;84.97;100925.87;1679408;82;25822;-76
2021/04/19 06:33:21;;;;;;;;;;;;;;;10.15;85.46;100925.34;1706235;82;25818;-76
2021/04/19 06:35:49;;;;;;;;;;;;;;;10.19;85.34;100925.32;1692182;82;25822;-76
2021/04/19 06:38:16;;;;;;;;;;;;;;;10.23;85.17;100921.77;1702160;82;27549;-76
2021/04/19 06:40:45;;;;;;;;;;;;;;;10.25;85.01;100928.63;1734649;82;25769;-76
2021/04/19 06:43:13;;;;;;;;;;;;;;;10.30;84.89;100930.28;1679415;82;25846;-76
2021/04/19 06:45:41;;;;;;;;;;;;;;;10.42;85.20;100925.33;1739076;81;25822;-76
2021/04/19 06:48:10;;;;;;;;;;;;;;;10.55;84.88;100919.72;1739691;81;25774;-76
2021/04/19 06:50:39;;;;;;;;;;;;;;;10.60;84.51;100916.02;1672159;82;27615;-76
2021/04/19 06:53:06;;;;;;;;;;;;;;;10.74;84.62;100917.06;1694737;82;25775;-76
2021/04/19 06:55:36;;;;;;;;;;;;;;;10.85;84.67;100920.66;1699990;83;25773;-76
2021/04/19 06:58:02;;;;;;;;;;;;;;;10.98;84.71;100919.53;1690616;81;26408;-76
2021/04/19 07:00:31;;;;;;;;;;;;;;;11.10;84.58;100918.07;1729071;81;25904;-76
2021/04/19 07:03:00;;;;;;;;;;;;;;;11.20;84.21;100920.50;1683771;82;27708;-76
2021/04/19 07:05:32;;;;;;;;;;;;;;;11.27;84.02;100921.45;1700047;82;25888;-78
2021/04/19 07:08:20;;;;;;;;;;;;;;;11.31;83.63;100920.06;1735679;81;25780;-78
2021/04/19 07:10:48;;;;;;;;;;;;;;;11.35;83.51;100914.65;1740413;81;26408;-77
2021/04/19 07:13:15;;;;;;;;;;;;;;;11.43;83.71;100916.73;1707494;81;26463;-77
2021/04/19 07:15:45;;;;;;;;;;;;;;;11.49;83.89;100910.63;1697196;83;27638;-76
2021/04/19 07:18:13;;;;;;;;;;;;;;;11.54;83.71;100917.63;1702645;82;25362;-75
2021/04/19 07:20:41;;;;;;;;;;;;;;;11.65;83.39;100910.95;1713083;81;25832;-76
2021/04/19 07:23:08;;;;;;;;;;;;;;;11.72;83.20;100914.57;1704649;82;26981;-76
2021/04/19 07:25:36;;;;;;;;;;;;;;;11.77;82.98;100910.83;1710055;82;25822;-76
2021/04/19 07:28:04;;;;;;;;;;;;;;;11.79;82.77;100903.42;1724070;82;27538;-76
2021/04/19 07:30:32;;;;;;;;;;;;;;;11.86;83.29;100903.50;1698850;82;25901;-76
2021/04/19 07:33:02;;;;;;;;;;;;;;;11.94;83.47;100910.94;1697756;81;25784;-77
2021/04/19 07:35:34;;;;;;;;;;;;;;;12.00;83.00;100904.81;1700031;82;26338;-76
2021/04/19 07:38:07;;;;;;;;;;;;;;;12.04;82.55;100903.41;1675655;82;25760;-75
2021/04/19 07:40:40;;;;;;;;;;;;;;;12.10;82.33;100901.31;1715176;82;28164;-75
2021/04/19 07:43:13;;;;;;;;;;;;;;;12.12;82.21;100892.59;1675458;82;26466;-75
2021/04/19 07:45:42;;;;;;;;;;;;;;;12.18;82.18;100886.45;1706484;82;25830;-75
2021/04/19 07:49:29;;;;;;;25.25;19.65;;;;;;;12.30;82.14;100881.39;1849288;75;25647;-79
2021/04/19 07:52:00;;;;;;;24.75;18.30;;;;;;;12.35;82.17;100884.34;1737444;80;25821;-78
2021/04/19 07:54:27;;;;;;;;;;;;;;;12.45;81.99;100882.67;1783976;78;28283;-79
2021/04/19 07:57:00;;;;;;;26.80;19.87;;;;;;;12.55;82.37;100883.20;1785234;78;25800;-79
2021/04/19 07:59:32;;;;;;;25.08;18.48;;;;;;;12.62;82.00;100880.87;1749107;81;25374;-77
2021/04/19 08:02:12;;;;;;;28.45;18.57;;;;;;;12.76;81.92;100873.27;1726806;81;25878;-77
2021/04/19 08:04:53;;;;;;;29.42;19.30;;;;;;;12.87;81.47;100879.44;1717891;80;26167;-76
2021/04/19 08:07:24;;;;;;;22.37;17.60;;;;;;;12.98;81.04;100874.06;1753791;80;28526;-75
2021/04/19 08:10:07;;;;;;;23.42;17.82;;;;;;;13.06;80.62;100880.16;1742138;80;25770;-76
2021/04/19 08:12:41;;;;;;;22.55;16.85;;;;;;;13.15;80.37;100880.30;1718855;81;26659;-75
2021/04/19 08:15:18;;;;;;;23.42;15.72;;;;;;;13.27;80.72;100878.42;1735170;81;26591;-76
2021/04/19 08:17:46;;;;;;;20.00;15.53;;;;;;;13.37;80.21;100879.73;1752971;81;25794;-75
2021/04/19 08:20:16;;;;;;;19.67;15.95;;;;;;;13.50;80.93;100872.23;1712942;81;27593;-75
2021/04/19 08:22:45;;;;;;;18.90;14.33;;;;;;;13.67;79.91;100872.22;1754410;81;26560;-75
2021/04/19 08:25:21;;;;;;;17.27;12.88;;;;;;;13.79;79.87;100873.33;1758323;80;25830;-75
2021/04/19 08:28:13;;;;;;;16.73;12.13;;;;;;;13.90;79.24;100868.18;1729271;80;25820;-75
2021/04/19 08:30:44;;;;;;;17.65;12.85;;;;;;;13.98;78.35;100867.19;1717756;81;25751;-75
2021/04/19 08:33:11;;;;;;;;;;;;;;;14.10;77.84;100869.59;1754400;79;28517;-76
2021/04/19 08:35:43;;;;;;;15.68;11.22;;;;;;;14.14;76.78;100865.45;1691190;83;26228;-76
2021/04/19 08:38:11;;;;;;;13.10;11.03;;;;;;;14.19;76.90;100866.20;1648345;82;25796;-76
2021/04/19 08:40:40;;;;;;;13.78;10.70;;;;;;;14.31;77.49;100872.67;1686725;82;25783;-75
2021/04/19 08:43:16;;;;;;;14.15;10.55;;;;;;;14.44;77.23;100874.05;1708384;83;26522;-75
2021/04/19 08:45:45;;;;;;;11.55;10.13;;;;;;;14.57;76.50;100869.52;1712336;83;27585;-75
2021/04/19 08:48:14;;;;;;;13.13;10.43;;;;;;;14.70;75.88;100865.99;1642894;84;26250;-76
2021/04/19 08:50:46;;;;;;;12.95;9.78;;;;;;;14.78;74.83;100871.17;1648323;85;25981;-76
2021/04/19 08:53:16;;;;;;;11.75;8.95;;;;;;;14.89;73.93;100862.47;1625522;85;25984;-75
2021/04/19 08:55:45;;;;;;;13.75;9.78;;;;;;;15.02;73.44;100869.20;1665250;85;26765;-75
2021/04/19 08:58:16;;;;;;;16.15;9.68;;;;;;;15.08;72.89;100872.92;1619948;87;28454;-76
2021/04/19 09:00:49;;;;;;;13.62;9.78;;;;;;;15.16;73.21;100870.03;1669009;85;25766;-76
2021/04/19 09:03:21;;;;;;;12.85;10.70;;;;;;;15.29;73.56;100866.77;1669302;84;25396;-76
2021/04/19 09:05:50;;;;;;;13.70;9.80;;;;;;;15.41;73.08;100867.80;1696235;83;25988;-76
2021/04/19 09:08:22;;;;;;;14.90;9.68;;;;;;;15.51;72.88;100860.63;1622109;84;26130;-76
2021/04/19 09:10:55;;;;;;;14.60;9.63;;;;;;;15.62;72.95;100856.43;1664470;83;28483;-76
2021/04/19 09:13:34;;;;;;;10.95;8.10;;;;;;;15.73;72.56;100855.77;1651263;85;26073;-76
2021/04/19 09:16:23;;;;;;;10.15;7.10;;;;;;;15.82;71.03;100857.20;1651098;85;25762;-76
2021/04/19 09:18:59;;;;;;;9.43;7.92;;;;;;;15.90;71.31;100850.19;1603902;86;25846;-76
2021/04/19 09:21:48;;;;;;;11.90;8.75;;;;;;;16.02;71.99;100856.05;1672978;83;25779;-76
2021/04/19 09:24:19;;;;;;;12.53;9.45;;;;;;;16.15;71.31;100851.92;1686159;84;28276;-76
2021/04/19 09:26:57;;;;;;;12.60;9.13;;;;;;;16.25;70.70;100854.69;1691580;83;25804;-76
2021/04/19 09:29:43;;;;;;;12.50;10.23;;;;;;;16.36;69.88;100854.80;1826442;77;26388;-76
2021/04/19 09:32:22;;;;;;;15.60;11.48;;;;;;;16.37;70.37;100848.36;1764903;79;25791;-76
2021/04/19 09:34:56;;;;;;;17.30;12.07;;;;;;;16.45;70.16;100850.80;1770808;78;28279;-76
2021/04/19 09:37:41;;;;;;;16.82;11.28;;;;;;;16.51;69.96;100859.41;1792026;79;26129;-75
2021/04/19 09:40:23;;;;;;;15.32;10.53;;;;;;;16.53;68.67;100851.10;1761789;79;26099;-77
2021/04/19 09:43:04;;;;;;;13.22;10.13;;;;;;;16.50;69.81;100849.66;1784634;79;26520;-76
2021/04/19 09:45:51;;;;;;;14.55;11.57;;;;;;;16.60;69.67;100846.45;1761291;79;25714;-77
2021/04/19 09:48:38;;;;;;;14.95;10.90;;;;;;;16.73;69.71;100846.34;1726579;81;27532;-75
2021/04/19 09:51:16;;;;;;;15.60;10.95;;;;;;;16.83;68.18;100843.45;1718640;81;25837;-75
2021/04/19 09:54:09;;;;;;;14.78;11.85;;;;;;;16.95;68.29;100840.86;1695524;82;26393;-75
2021/04/19 09:56:49;;;;;;;16.32;11.88;;;;;;;17.13;67.19;100845.48;1721287;82;26458;-76
2021/04/19 09:59:20;;;;;;;15.93;11.10;;;;;;;17.22;66.96;100842.77;1720886;81;26409;-75
2021/04/19 10:01:54;;;;;;;18.52;12.80;;;;;;;17.30;65.45;100841.14;1665139;82;27525;-76
2021/04/19 10:04:24;;;;;;;17.50;12.20;;;;;;;17.38;65.70;100838.13;1687851;82;26066;-75
2021/04/19 10:07:03;;;;;;;17.73;12.73;;;;;;;17.43;63.99;100836.39;1733071;81;26533;-74
2021/04/19 10:09:31;;;;;;;15.45;12.10;;;;;;;17.50;63.53;100834.99;1742011;81;25783;-75
2021/04/19 10:12:04;;;;;;;13.43;11.50;;;;;;;17.56;61.76;100836.27;1670437;81;25899;-76
2021/04/19 10:14:38;;;;;;;15.65;11.35;;;;;;;17.61;62.06;100835.59;1716647;81;28504;-75
2021/04/19 10:20:21;;;;;;;18.20;12.53;;;;;;;17.80;61.33;100842.66;1837519;77;26306;-76
2021/04/19 10:23:09;;;;;;;13.05;11.15;;;;;;;17.78;61.81;100830.37;1797450;78;25780;-78
2021/04/19 10:28:41;;;;;;;20.97;10.90;;;;;;;18.08;59.11;100823.93;1789640;79;25584;-76
2021/04/19 10:31:21;;;;;;;13.03;10.93;;;;;;;18.08;60.23;100827.16;1757699;80;25776;-77
2021/04/19 10:33:53;;;;;;;14.98;10.40;;;;;;;18.10;59.16;100820.98;1717998;77;27340;-76
2021/04/19 10:36:24;;;;;;;15.72;9.98;;;;;;;18.13;60.11;100826.79;1689625;84;25844;-77
2021/04/19 10:38:56;;;;;;;15.28;9.70;;;;;;;18.17;57.17;100827.14;1642604;84;25861;-77
2021/04/19 10:41:33;;;;;;;12.40;9.45;;;;;;;18.23;58.32;100821.62;1690830;84;25799;-77
2021/04/19 10:44:06;;;;;;;12.43;9.08;;;;;;;18.33;57.65;100821.05;1690853;84;26400;-77
2021/04/19 10:46:39;;;;;;;12.58;8.98;;;;;;;18.39;56.97;100827.73;1686161;84;27536;-76
2021/04/19 10:49:27;;;;;;;12.30;8.88;;;;;;;18.49;56.16;100825.85;1797018;79;25724;-77
2021/04/19 10:52:02;;;;;;;11.53;8.55;;;;;;;18.44;56.50;100823.00;1740080;80;25420;-77
2021/04/19 10:54:38;;;;;;;11.97;8.08;;;;;;;18.51;56.15;100822.38;1766602;80;27522;-76
2021/04/19 10:57:08;;;;;;;10.40;8.53;;;;;;;18.56;57.09;100818.97;1766029;80;26461;-77
2021/04/19 10:59:37;;;;;;;13.33;8.73;;;;;;;18.67;54.05;100818.16;1724114;80;25851;-77
2021/04/19 11:02:11;;;;;;;10.40;8.28;;;;;;;18.71;54.98;100812.00;1740811;81;25822;-76
2021/04/19 11:04:39;;;;;;;10.45;7.83;;;;;;;18.72;55.30;100808.24;1724026;81;25864;-77
2021/04/19 11:07:38;;;;;;;11.60;8.68;;;;;;;18.75;53.32;100810.50;1733621;81;27539;-77
2021/04/19 11:10:25;;;;;;;11.22;7.70;;;;;;;18.78;52.29;100818.16;1717748;82;26771;-76
2021/04/19 11:13:05;;;;;;;10.08;7.90;;;;;;;18.78;50.98;100811.38;1750074;81;25910;-77
2021/04/19 11:15:40;;;;;;;12.03;8.63;;;;;;;18.74;50.17;100812.91;1710735;80;26247;-77
2021/04/19 11:18:21;;;;;;;9.50;7.05;;;;;;;18.71;50.14;100803.86;1751349;80;26025;-78
2021/04/19 11:20:51;;;;;;;15.08;7.75;;;;;;;18.78;50.81;100802.39;1739287;81;27629;-78
2021/04/19 11:23:28;;;;;;;9.15;7.40;;;;;;;18.86;50.91;100800.71;1767333;80;26125;-76
2021/04/19 11:25:59;;;;;;;11.50;7.85;;;;;;;18.87;49.44;100809.13;1729293;80;25386;-76
2021/04/19 11:28:33;;;;;;;;;;;;;;;18.88;49.32;100808.89;1762676;80;25714;-77
2021/04/19 11:31:15;;;;;;;10.68;7.62;;;;;;;18.83;46.55;100802.00;1724235;81;25837;-76
2021/04/19 11:33:43;;;;;;;10.72;7.05;;;;;;;18.85;46.30;100805.83;1730761;80;28582;-76
2021/04/19 11:36:11;;;;;;;15.18;8.70;;;;;;;18.78;48.33;100805.11;1720197;81;26588;-77
2021/04/19 11:38:43;;;;;;;10.78;7.28;;;;;;;18.75;48.33;100802.36;1709344;82;25998;-77
2021/04/19 11:41:14;;;;;;;14.23;8.65;;;;;;;18.78;48.00;100807.30;1692886;81;25823;-77
2021/04/19 11:43:50;;;;;;;8.60;6.92;;;;;;;18.85;47.64;100805.30;1690038;83;25824;-76
2021/04/19 11:46:21;;;;;;;11.15;7.60;;;;;;;18.93;45.99;100806.83;1716882;81;27575;-77
2021/04/19 11:48:52;;;;;;;16.65;10.25;;;;;;;18.92;47.92;100807.38;1699338;81;25847;-77
2021/04/19 11:51:22;;;;;;;15.75;8.43;;;;;;;18.96;48.41;100804.48;1699598;81;26416;-76
2021/04/19 11:53:51;;;;;;;10.55;6.85;;;;;;;19.09;48.12;100803.41;1732384;81;25934;-77
2021/04/19 11:56:20;;;;;;;10.23;6.83;;;;;;;19.15;47.37;100801.09;1745837;81;25523;-77
2021/04/19 11:58:50;;;;;;;8.83;5.90;;;;;;;19.20;46.39;100798.51;1723070;81;28300;-77
2021/04/19 12:01:20;;;;;;;9.80;6.57;;;;;;;19.24;46.77;100809.19;1698169;82;25555;-77
2021/04/19 12:03:50;;;;;;;8.05;6.35;;;;;;;19.25;47.04;100807.58;1664206;84;25885;-76
2021/04/19 12:06:20;;;;;;;8.10;6.53;;;;;;;19.25;45.71;100803.50;1721637;81;26203;-77
2021/04/19 12:09:08;;;;;;;8.13;6.78;;;;;;;19.24;44.98;100792.89;1842273;76;26095;-76
2021/04/19 12:11:35;;;;;;;7.83;5.37;;;;;;;19.21;46.18;100796.91;1760600;78;25729;-77
2021/04/19 12:14:03;;;;;;;8.23;6.22;;;;;;;19.31;45.22;100794.13;1764773;79;27339;-77
2021/04/19 12:16:31;;;;;;;11.38;6.37;;;;;;;19.34;44.81;100782.27;1783291;78;26133;-77
2021/04/19 12:19:00;;;;;;;11.80;6.62;;;;;;;19.36;44.59;100782.85;1718081;78;25860;-76
2021/04/19 12:21:28;;;;;;;9.00;5.97;;;;;;;19.41;45.50;100778.89;1729320;78;25867;-76
2021/04/19 12:23:55;;;;;;;10.50;5.53;;;;;;;19.50;44.36;100781.53;1769769;78;25857;-77
2021/04/19 12:26:23;;;;;;;8.55;6.42;;;;;;;19.51;43.37;100775.55;1797812;78;27567;-77
2021/04/19 12:28:51;;;;;;;6.55;5.50;;;;;;;19.45;44.31;100781.95;1746503;78;26088;-76
2021/04/19 12:31:19;;;;;;;9.55;5.80;;;;;;;19.54;45.40;100769.12;1730507;81;25883;-77
2021/04/19 12:33:48;;;;;;;9.13;5.62;;;;;;;19.57;44.64;100767.25;1694637;81;27321;-77
2021/04/19 12:36:17;;;;;;;5.62;4.97;;;;;;;19.59;43.16;100774.63;1702352;82;25381;-77
2021/04/19 12:38:45;;;;;;;12.95;5.97;;;;;;;19.57;44.15;100770.50;1688931;82;27642;-77